Flight Track Log - Related Links

Times and Time Zones

All times are in EDT time to prevent confusion due to time zone crossing. See the N55VF flight status page for this flight to view local times or setup timezone preferences in your user account.

Time Position Orientation Groundspeed Altitude Reporting Facility
EDT Latitude Longitude Course Direction KTS MPH feet Rate Location/Type
Wed 07:48:45 AM 41.1769 -81.1431 115° Southeast 140 161 3,300  Level Cleveland Center
Wed 07:49:45 AM 41.1606 -81.0933 114° Southeast 141 162 4,000 600 Climbing Cleveland Center
Wed 07:50:45 AM 41.1419 -81.0436 116° Southeast 141 162 4,500 500 Climbing Cleveland Center
Wed 07:51:45 AM 41.1253 -80.9939 114° Southeast 146 168 5,000 550 Climbing Cleveland Center
Wed 07:52:45 AM 41.1069 -80.9386 114° Southeast 151 174 5,600 474 Climbing Cleveland Center
Wed 07:54:00 AM 41.0658 -80.8808 115° Southeast  Level FlightAware Approximate
Wed 07:58:17 AM 41.0060 -80.6640 114° Southeast 148 170 8,100  Level FlightAware ADS-B
Wed 07:58:37 AM 41.0010 -80.6500 115° Southeast 148 170 8,100  Level FlightAware ADS-B
Wed 07:58:57 AM 40.9960 -80.6360 115° Southeast 148 170 8,100  Level FlightAware ADS-B
Wed 07:59:17 AM 40.9910 -80.6220 115° Southeast 148 170 8,100 1,125 Level FlightAware ADS-B
Wed 07:59:45 AM 40.9781 -80.5942 115° Southeast 150 173 9,000 614 Climbing Cleveland Center
Wed 08:00:45 AM 40.9594 -80.5392 114° Southeast 155 178 9,000  Level Cleveland Center
Wed 08:01:45 AM 40.9364 -80.4786 117° Southeast 165 190 9,000  Level Cleveland Center
Wed 08:02:46 AM 40.9156 -80.4183 115° Southeast 170 196 9,000  Level Cleveland Center
Wed 08:03:45 AM 40.8944 -80.3606 116° Southeast 176 203 9,000  Level Cleveland Center
Wed 08:04:45 AM 40.8714 -80.3003 117° Southeast 176 203 9,000  Level Cleveland Center
Wed 08:06:00 AM 40.8400 -80.2250 119° Southeast  Level FlightAware Approximate
Wed 08:09:45 AM 40.7558 -80.0019 117° Southeast 176 203 9,000  Level Cleveland Center
Wed 08:10:45 AM 40.7408 -79.9556 113° Southeast 176 203 9,000  Level Cleveland Center
Wed 08:11:45 AM 40.7197 -79.8956 115° Southeast 176 203 9,000  Level Cleveland Center
Wed 08:12:45 AM 40.6983 -79.8381 116° Southeast 176 203 9,000  Level Cleveland Center
Wed 08:13:00 AM 40.6689 -79.8001 117° Southeast  Level FlightAware Approximate
Wed 08:13:45 AM 40.6753 -79.7836 119° Southeast 176 203 9,000  Level Cleveland Center
Wed 08:14:00 AM 40.6449 -79.7392 117° Southeast  Level FlightAware Approximate
Wed 08:14:45 AM 40.6539 -79.7264 116° Southeast 176 203 9,000  Level Cleveland Center
Wed 08:15:00 AM 40.6209 -79.6784 117° Southeast  Level FlightAware Approximate
Wed 08:15:45 AM 40.6325 -79.6692 116° Southeast 176 203 9,000  Level Cleveland Center
Wed 08:16:45 AM 40.6114 -79.6094 115° Southeast 176 203 9,000  Level Cleveland Center
Wed 08:17:45 AM 40.5900 -79.5550 117° Southeast 176 203 9,000  Level Cleveland Center
Wed 08:18:45 AM 40.5686 -79.4981 116° Southeast 176 203 9,000  Level Cleveland Center
Wed 08:19:45 AM 40.5472 -79.4408 116° Southeast 176 203 9,000  Level Cleveland Center
Wed 08:20:45 AM 40.5236 -79.3839 119° Southeast 176 203 9,000  Level Cleveland Center
Wed 08:21:45 AM 40.5022 -79.3269 116° Southeast 176 203 9,000 50 Level Cleveland Center
Wed 08:22:45 AM 40.4808 -79.2703 116° Southeast 176 203 9,100 50 Climbing Cleveland Center
Wed 08:23:45 AM 40.4550 -79.2161 122° Southeast 176 203 9,100 50 Level Cleveland Center
Wed 08:24:45 AM 40.4253 -79.1647 127° Southeast 176 203 9,200  Climbing Cleveland Center
Wed 08:25:45 AM 40.3872 -79.1194 138° Southeast 176 203 9,100 -50 Descending Cleveland Center
Wed 08:26:45 AM 40.3531 -79.0711 133° Southeast 176 203 9,100  Level Cleveland Center
Wed 08:27:45 AM 40.3150 -79.0256 138° Southeast 176 203 9,100  Level Cleveland Center
Wed 08:28:45 AM 40.2789 -78.9775 135° Southeast 176 203 9,100  Level Cleveland Center
Wed 08:29:45 AM 40.2428 -78.9319 136° Southeast 176 203 9,100  Level Cleveland Center
Wed 08:30:45 AM 40.2089 -78.8867 134° Southeast 176 203 9,100  Level Cleveland Center
Wed 08:31:45 AM 40.1706 -78.8386 136° Southeast 176 203 9,100  Level Cleveland Center
Wed 08:32:45 AM 40.1364 -78.7936 135° Southeast 171 197 9,100  Level Cleveland Center
Wed 08:33:45 AM 40.1003 -78.7456 134° Southeast 171 197 9,100  Level Cleveland Center
Wed 08:34:45 AM 40.0642 -78.6978 135° Southeast 171 197 9,100  Level Cleveland Center
Wed 08:35:45 AM 40.0258 -78.6528 138° Southeast 171 197 9,100  Level Cleveland Center
Wed 08:36:45 AM 39.9875 -78.6050 136° Southeast 171 197 9,100  Level Cleveland Center
Wed 08:37:45 AM 39.9533 -78.5572 133° Southeast 176 203 9,100  Level Cleveland Center
Wed 08:39:26 AM 39.8936 -78.4878 138° Southeast 162 186 9,100  Level Washington Center
Wed 08:40:27 AM 39.8492 -78.4292 135° Southeast 195 224 9,100  Level Washington Center
Wed 08:41:25 AM 39.8125 -78.3844 137° Southeast 190 219 9,100 50 Level Washington Center
Wed 08:42:26 AM 39.7783 -78.3372 133° Southeast 184 212 9,200  Climbing Washington Center
Wed 08:43:26 AM 39.7417 -78.2928 137° Southeast 184 212 9,100 -50 Descending Washington Center
Wed 08:44:27 AM 39.7053 -78.2456 135° Southeast 184 212 9,100  Level Washington Center
Wed 08:45:28 AM 39.6961 -78.1886 102° East 171 197 9,100  Level Washington Center
Wed 08:46:26 AM 39.6850 -78.1261 103° East 165 190 9,100  Level Washington Center
Wed 08:47:27 AM 39.6758 -78.0639 101° East 170 196 9,100  Level Washington Center
Wed 08:48:28 AM 39.6644 -78.0094 105° East 170 196 9,100  Level Washington Center
Wed 08:49:25 AM 39.6553 -77.9472 101° East 170 196 9,100  Level Washington Center
Wed 08:50:26 AM 39.6461 -77.8850 101° East 170 196 9,100  Level Washington Center
Wed 08:51:26 AM 39.6347 -77.8253 104° East 170 196 9,100  Level Washington Center
Wed 08:52:27 AM 39.6256 -77.7603 100° East 170 196 9,100  Level Washington Center
Wed 08:53:27 AM 39.6139 -77.7008 104° East 170 196 9,100  Level Washington Center
Wed 08:54:28 AM 39.6025 -77.6358 103° East 170 196 9,100  Level Washington Center
Wed 08:55:26 AM 39.5953 -77.5764 99° East 170 196 9,100 -571 Level Washington Center
Wed 09:00:57 AM 39.5360 -77.1950 99° East 201 231 5,400 -656 Descending FlightAware ADS-B
Wed 09:01:32 AM 39.5270 -77.1570 107° East 195 224 5,100 -545 Descending FlightAware ADS-B
Wed 09:01:52 AM 39.5200 -77.1330 111° Southeast 188 216 4,900 -545 Descending FlightAware ADS-B
Wed 09:02:27 AM 39.5100 -77.0990 111° Southeast 185 213 4,600 -300 Descending FlightAware ADS-B
Wed 09:02:52 AM 39.5050 -77.0780 107° East 177 204 4,600  Level FlightAware ADS-B
Wed 09:03:22 AM 39.4970 -77.0470 108° East 169 194 4,600  Level FlightAware ADS-B
Wed 09:03:47 AM 39.4900 -77.0220 110° East 164 189 4,600 -360 Level FlightAware ADS-B
Wed 09:04:12 AM 39.4830 -76.9970 110° East 169 194 4,300 -900 Descending FlightAware ADS-B
Wed 09:04:47 AM 39.4730 -76.9570 108° East 189 217 3,700 -982 Descending FlightAware ADS-B
Wed 09:05:07 AM 39.4670 -76.9370 111° Southeast 189 217 3,400 -764 Descending FlightAware ADS-B
Wed 09:05:42 AM 39.4580 -76.9040 109° East 183 211 3,000 -655 Descending FlightAware ADS-B
Wed 09:06:02 AM 39.4520 -76.8790 107° East 179 206 2,800 -545 Descending FlightAware ADS-B
Wed 09:06:37 AM 39.4430 -76.8480 111° Southeast 176 203 2,500 -300 Descending FlightAware ADS-B
Wed 09:07:02 AM 39.4370 -76.8240 108° East 159 183 2,500  Level FlightAware ADS-B
Wed 09:07:32 AM 39.4300 -76.7980 109° East 156 180 2,500  Level FlightAware ADS-B
Wed 09:07:47 AM 39.4270 -76.7870 109° East 155 178 2,500  Level FlightAware ADS-B
Wed 09:08:07 AM 39.4220 -76.7680 109° East 155 178 2,500  Level FlightAware ADS-B
Wed 09:08:47 AM 39.4120 -76.7310 109° East 155 178 2,500 -75 Level FlightAware ADS-B
Wed 09:09:27 AM 39.4030 -76.6970 109° East 153 176 2,400 -400 Descending FlightAware ADS-B
Wed 09:09:47 AM 39.3990 -76.6840 112° Southeast 167 192 2,100 -400 Descending FlightAware ADS-B
Wed 09:10:12 AM 39.3940 -76.6630 107° East 167 192 2,100  Level FlightAware ADS-B
Wed 09:11:37 AM 39.3740 -76.5910 110° East 129 148 2,100 116 Level FlightAware ADS-B
Wed 09:12:47 AM 39.3667 -76.5333 110° East 122 140 2,400 -92 Climbing Potomac TRACON
Wed 09:13:48 AM 39.3500 -76.5000 123° Southeast 106 122 1,900 -595 Descending Potomac TRACON
Wed 09:14:48 AM 39.3333 -76.4667 123° Southeast 109 125 1,200 -500 Descending Potomac TRACON
Wed 09:15:48 AM 39.3167 -76.4333 123° Southeast 110 127 900 -350 Descending Potomac TRACON
Wed 09:16:48 AM 39.3000 -76.4167 142° Southeast 107 123 500 -400 Descending Potomac TRACON
Wed 09:18:00 AM 39.3167 -76.4000 113° Southeast  Level FlightAware Approximate
Wed 09:25:00 AM 39.3257 -76.4138 113° Southeast  Level Estimated
Wed 09:26:00 AM 39.3257 -76.4138 113° Southeast  Level Estimated
Wed 09:27:00 AM 39.3257 -76.4138 113° Southeast  Level Estimated
Wed 09:28:00 AM 39.3257 -76.4138 113° Southeast  Level Estimated

Login

Don't have an account? Register now (free) for customized features, flight alerts, and more!